sensor_id;sensor_type;location;lat;lon;timestamp;temperature;humidity
17128;DHT22;8679;50.842;4.322;2022-12-18T00:02:22;-2.50;99.90
17128;DHT22;8679;50.842;4.322;2022-12-18T00:04:48;-2.40;99.90
17128;DHT22;8679;50.842;4.322;2022-12-18T00:07:13;-2.40;99.90
17128;DHT22;8679;50.842;4.322;2022-12-18T00:09:39;-2.50;99.90
17128;DHT22;8679;50.842;4.322;2022-12-18T00:12:05;-2.50;99.90
17128;DHT22;8679;50.842;4.322;2022-12-18T00:14:31;-2.50;99.90
17128;DHT22;8679;50.842;4.322;2022-12-18T00:16:56;-2.50;99.90
17128;DHT22;8679;50.842;4.322;2022-12-18T00:19:23;-2.50;99.90
17128;DHT22;8679;50.842;4.322;2022-12-18T00:21:49;-2.60;99.90
17128;DHT22;8679;50.842;4.322;2022-12-18T00:24:15;-2.60;99.90
17128;DHT22;8679;50.842;4.322;2022-12-18T00:26:40;-2.60;99.90
17128;DHT22;8679;50.842;4.322;2022-12-18T00:29:11;-2.60;99.90
17128;DHT22;8679;50.842;4.322;2022-12-18T00:31:37;-2.60;99.90
17128;DHT22;8679;50.842;4.322;2022-12-18T00:34:03;-2.70;99.90
17128;DHT22;8679;50.842;4.322;2022-12-18T00:36:31;-2.70;99.90
17128;DHT22;8679;50.842;4.322;2022-12-18T00:38:59;-2.70;99.90
17128;DHT22;8679;50.842;4.322;2022-12-18T00:41:25;-2.70;99.90
17128;DHT22;8679;50.842;4.322;2022-12-18T00:44:12;-2.60;99.90
17128;DHT22;8679;50.842;4.322;2022-12-18T00:46:38;-2.40;99.90
17128;DHT22;8679;50.842;4.322;2022-12-18T00:49:04;-2.30;99.90
17128;DHT22;8679;50.842;4.322;2022-12-18T00:51:30;-2.30;99.90
17128;DHT22;8679;50.842;4.322;2022-12-18T00:53:56;-2.20;99.90
17128;DHT22;8679;50.842;4.322;2022-12-18T00:56:22;-2.30;99.90
17128;DHT22;8679;50.842;4.322;2022-12-18T00:58:48;-2.30;99.90
17128;DHT22;8679;50.842;4.322;2022-12-18T01:01:14;-2.40;99.90
17128;DHT22;8679;50.842;4.322;2022-12-18T01:03:40;-2.50;99.90
17128;DHT22;8679;50.842;4.322;2022-12-18T01:06:07;-2.60;99.90
17128;DHT22;8679;50.842;4.322;2022-12-18T01:08:33;-2.60;99.90
17128;DHT22;8679;50.842;4.322;2022-12-18T01:10:59;-2.70;99.90
17128;DHT22;8679;50.842;4.322;2022-12-18T01:13:24;-2.70;99.90
17128;DHT22;8679;50.842;4.322;2022-12-18T01:15:50;-2.60;99.90
17128;DHT22;8679;50.842;4.322;2022-12-18T01:18:16;-2.70;99.90
17128;DHT22;8679;50.842;4.322;2022-12-18T01:20:42;-2.80;99.90
17128;DHT22;8679;50.842;4.322;2022-12-18T01:23:07;-2.80;99.90
17128;DHT22;8679;50.842;4.322;2022-12-18T01:25:35;-2.80;99.90
17128;DHT22;8679;50.842;4.322;2022-12-18T01:28:02;-2.80;99.90
17128;DHT22;8679;50.842;4.322;2022-12-18T01:30:27;-2.80;99.90
17128;DHT22;8679;50.842;4.322;2022-12-18T01:32:53;-2.80;99.90
17128;DHT22;8679;50.842;4.322;2022-12-18T01:35:19;-2.80;99.90
17128;DHT22;8679;50.842;4.322;2022-12-18T01:37:45;-2.90;99.90
17128;DHT22;8679;50.842;4.322;2022-12-18T01:40:11;-2.90;99.90
17128;DHT22;8679;50.842;4.322;2022-12-18T01:42:36;-2.90;99.90
17128;DHT22;8679;50.842;4.322;2022-12-18T01:50:13;-2.90;99.90
17128;DHT22;8679;50.842;4.322;2022-12-18T01:52:42;-2.90;99.90
17128;DHT22;8679;50.842;4.322;2022-12-18T01:55:09;-2.80;99.90
17128;DHT22;8679;50.842;4.322;2022-12-18T01:57:35;-2.70;99.90
17128;DHT22;8679;50.842;4.322;2022-12-18T02:00:09;-2.70;99.90
17128;DHT22;8679;50.842;4.322;2022-12-18T02:02:35;-2.80;99.90
17128;DHT22;8679;50.842;4.322;2022-12-18T02:05:02;-2.70;99.90
17128;DHT22;8679;50.842;4.322;2022-12-18T02:13:29;-2.90;99.90
17128;DHT22;8679;50.842;4.322;2022-12-18T02:18:50;-3.00;99.90
17128;DHT22;8679;50.842;4.322;2022-12-18T02:26:50;-3.10;99.90
17128;DHT22;8679;50.842;4.322;2022-12-18T02:29:37;-3.10;99.90
17128;DHT22;8679;50.842;4.322;2022-12-18T02:32:08;-3.10;99.90
17128;DHT22;8679;50.842;4.322;2022-12-18T02:34:37;-3.00;99.90
17128;DHT22;8679;50.842;4.322;2022-12-18T02:37:06;-2.90;99.90
17128;DHT22;8679;50.842;4.322;2022-12-18T02:39:35;-2.90;99.90
17128;DHT22;8679;50.842;4.322;2022-12-18T02:42:02;-2.90;99.90
17128;DHT22;8679;50.842;4.322;2022-12-18T02:44:34;-2.80;99.90
17128;DHT22;8679;50.842;4.322;2022-12-18T02:47:00;-2.80;99.90
17128;DHT22;8679;50.842;4.322;2022-12-18T02:52:19;-2.60;99.90
17128;DHT22;8679;50.842;4.322;2022-12-18T02:55:13;-2.50;99.90
17128;DHT22;8679;50.842;4.322;2022-12-18T02:57:57;-2.60;99.90
17128;DHT22;8679;50.842;4.322;2022-12-18T03:00:30;-2.60;99.90
17128;DHT22;8679;50.842;4.322;2022-12-18T03:03:24;-2.80;99.90
17128;DHT22;8679;50.842;4.322;2022-12-18T03:06:04;-2.90;99.90
17128;DHT22;8679;50.842;4.322;2022-12-18T03:08:40;-3.10;99.90
17128;DHT22;8679;50.842;4.322;2022-12-18T03:11:09;-3.20;99.90
17128;DHT22;8679;50.842;4.322;2022-12-18T03:13:52;-3.30;99.90
17128;DHT22;8679;50.842;4.322;2022-12-18T03:16:27;-3.40;99.90
17128;DHT22;8679;50.842;4.322;2022-12-18T03:19:11;-3.50;99.90
17128;DHT22;8679;50.842;4.322;2022-12-18T03:21:51;-3.50;99.90
17128;DHT22;8679;50.842;4.322;2022-12-18T03:24:18;-3.50;99.90
17128;DHT22;8679;50.842;4.322;2022-12-18T03:26:51;-3.60;99.90
17128;DHT22;8679;50.842;4.322;2022-12-18T03:29:33;-3.60;99.90
17128;DHT22;8679;50.842;4.322;2022-12-18T03:32:07;-3.50;99.90
17128;DHT22;8679;50.842;4.322;2022-12-18T03:34:38;-3.50;99.90
17128;DHT22;8679;50.842;4.322;2022-12-18T03:37:05;-3.50;99.90
17128;DHT22;8679;50.842;4.322;2022-12-18T03:39:31;-3.60;99.90
17128;DHT22;8679;50.842;4.322;2022-12-18T03:42:20;-3.60;99.90
17128;DHT22;8679;50.842;4.322;2022-12-18T03:47:27;-3.70;99.90
17128;DHT22;8679;50.842;4.322;2022-12-18T03:49:57;-3.70;99.90
17128;DHT22;8679;50.842;4.322;2022-12-18T03:52:26;-3.70;99.90
17128;DHT22;8679;50.842;4.322;2022-12-18T03:54:55;-3.70;99.90
17128;DHT22;8679;50.842;4.322;2022-12-18T03:57:25;-3.70;99.90
17128;DHT22;8679;50.842;4.322;2022-12-18T03:59:56;-3.80;99.90
17128;DHT22;8679;50.842;4.322;2022-12-18T04:02:24;-3.70;99.90
17128;DHT22;8679;50.842;4.322;2022-12-18T04:04:53;-3.80;99.90
17128;DHT22;8679;50.842;4.322;2022-12-18T04:07:21;-3.80;99.90
17128;DHT22;8679;50.842;4.322;2022-12-18T04:09:48;-3.80;99.90
17128;DHT22;8679;50.842;4.322;2022-12-18T04:12:15;-3.80;99.90
17128;DHT22;8679;50.842;4.322;2022-12-18T04:14:41;-3.90;99.90
17128;DHT22;8679;50.842;4.322;2022-12-18T04:17:06;-3.90;99.90
17128;DHT22;8679;50.842;4.322;2022-12-18T04:19:32;-3.90;99.90
17128;DHT22;8679;50.842;4.322;2022-12-18T04:21:58;-3.90;99.90
17128;DHT22;8679;50.842;4.322;2022-12-18T04:24:23;-3.90;99.90
17128;DHT22;8679;50.842;4.322;2022-12-18T04:26:49;-3.90;99.90
17128;DHT22;8679;50.842;4.322;2022-12-18T04:29:15;-3.90;99.90
17128;DHT22;8679;50.842;4.322;2022-12-18T04:31:40;-3.90;99.90
17128;DHT22;8679;50.842;4.322;2022-12-18T04:34:06;-3.90;99.90
17128;DHT22;8679;50.842;4.322;2022-12-18T04:36:32;-3.90;99.90
17128;DHT22;8679;50.842;4.322;2022-12-18T04:38:57;-4.00;99.90
17128;DHT22;8679;50.842;4.322;2022-12-18T04:41:23;-3.90;99.90
17128;DHT22;8679;50.842;4.322;2022-12-18T04:43:48;-3.80;99.90
17128;DHT22;8679;50.842;4.322;2022-12-18T04:46:14;-3.80;99.90
17128;DHT22;8679;50.842;4.322;2022-12-18T04:48:40;-3.90;99.90
17128;DHT22;8679;50.842;4.322;2022-12-18T04:51:06;-3.80;99.90
17128;DHT22;8679;50.842;4.322;2022-12-18T04:53:32;-3.90;99.90
17128;DHT22;8679;50.842;4.322;2022-12-18T04:56:07;-3.90;99.90
17128;DHT22;8679;50.842;4.322;2022-12-18T04:58:34;-4.00;99.90
17128;DHT22;8679;50.842;4.322;2022-12-18T05:01:01;-4.10;99.90
17128;DHT22;8679;50.842;4.322;2022-12-18T05:03:26;-4.10;99.90
17128;DHT22;8679;50.842;4.322;2022-12-18T05:05:52;-4.20;99.90
17128;DHT22;8679;50.842;4.322;2022-12-18T05:08:18;-4.20;99.90
17128;DHT22;8679;50.842;4.322;2022-12-18T05:10:44;-4.20;99.90
17128;DHT22;8679;50.842;4.322;2022-12-18T05:13:09;-4.20;99.90
17128;DHT22;8679;50.842;4.322;2022-12-18T05:15:35;-4.30;99.90
17128;DHT22;8679;50.842;4.322;2022-12-18T05:18:01;-4.20;99.90
17128;DHT22;8679;50.842;4.322;2022-12-18T05:20:27;-4.30;99.90
17128;DHT22;8679;50.842;4.322;2022-12-18T05:22:53;-4.30;99.90
17128;DHT22;8679;50.842;4.322;2022-12-18T05:25:19;-4.30;99.90
17128;DHT22;8679;50.842;4.322;2022-12-18T05:27:46;-4.30;99.90
17128;DHT22;8679;50.842;4.322;2022-12-18T05:30:12;-4.30;99.90
17128;DHT22;8679;50.842;4.322;2022-12-18T05:32:38;-4.30;99.90
17128;DHT22;8679;50.842;4.322;2022-12-18T05:35:05;-4.30;99.90
17128;DHT22;8679;50.842;4.322;2022-12-18T05:37:31;-4.30;99.90
17128;DHT22;8679;50.842;4.322;2022-12-18T05:39:57;-4.40;99.90
17128;DHT22;8679;50.842;4.322;2022-12-18T05:42:23;-4.40;99.90
17128;DHT22;8679;50.842;4.322;2022-12-18T05:44:48;-4.40;99.90
17128;DHT22;8679;50.842;4.322;2022-12-18T05:47:14;-4.30;99.90
17128;DHT22;8679;50.842;4.322;2022-12-18T05:49:40;-4.30;99.90
17128;DHT22;8679;50.842;4.322;2022-12-18T05:52:05;-4.30;99.90
17128;DHT22;8679;50.842;4.322;2022-12-18T05:54:31;-4.30;99.90
17128;DHT22;8679;50.842;4.322;2022-12-18T05:56:57;-4.20;99.90
17128;DHT22;8679;50.842;4.322;2022-12-18T05:59:23;-4.10;99.90
17128;DHT22;8679;50.842;4.322;2022-12-18T06:01:49;-4.10;99.90
17128;DHT22;8679;50.842;4.322;2022-12-18T06:04:14;-4.10;99.90
17128;DHT22;8679;50.842;4.322;2022-12-18T06:06:40;-3.90;99.90
17128;DHT22;8679;50.842;4.322;2022-12-18T06:09:06;-3.80;99.90
17128;DHT22;8679;50.842;4.322;2022-12-18T06:11:36;-3.70;99.90
17128;DHT22;8679;50.842;4.322;2022-12-18T06:14:03;-3.60;99.90
17128;DHT22;8679;50.842;4.322;2022-12-18T06:16:30;-3.60;99.90
17128;DHT22;8679;50.842;4.322;2022-12-18T06:19:00;-3.60;99.90
17128;DHT22;8679;50.842;4.322;2022-12-18T06:21:27;-3.60;99.90
17128;DHT22;8679;50.842;4.322;2022-12-18T06:23:53;-3.60;99.90
17128;DHT22;8679;50.842;4.322;2022-12-18T06:26:19;-3.70;99.90
17128;DHT22;8679;50.842;4.322;2022-12-18T06:28:44;-3.70;99.90
17128;DHT22;8679;50.842;4.322;2022-12-18T06:31:10;-3.70;99.90
17128;DHT22;8679;50.842;4.322;2022-12-18T06:33:37;-3.70;99.90
17128;DHT22;8679;50.842;4.322;2022-12-18T06:36:13;-3.70;99.90
17128;DHT22;8679;50.842;4.322;2022-12-18T06:38:41;-3.70;99.90
17128;DHT22;8679;50.842;4.322;2022-12-18T06:41:11;-3.70;99.90
17128;DHT22;8679;50.842;4.322;2022-12-18T06:43:37;-3.70;99.90
17128;DHT22;8679;50.842;4.322;2022-12-18T06:46:04;-3.80;99.90
17128;DHT22;8679;50.842;4.322;2022-12-18T06:48:30;-3.80;99.90
17128;DHT22;8679;50.842;4.322;2022-12-18T06:50:56;-3.80;99.90
17128;DHT22;8679;50.842;4.322;2022-12-18T06:53:22;-3.80;99.90
17128;DHT22;8679;50.842;4.322;2022-12-18T06:55:48;-3.90;99.90
17128;DHT22;8679;50.842;4.322;2022-12-18T06:58:14;-3.90;99.90
17128;DHT22;8679;50.842;4.322;2022-12-18T07:00:39;-3.80;99.90
17128;DHT22;8679;50.842;4.322;2022-12-18T07:03:05;-3.80;99.90
17128;DHT22;8679;50.842;4.322;2022-12-18T07:05:31;-3.70;99.90
17128;DHT22;8679;50.842;4.322;2022-12-18T07:07:58;-3.70;99.90
17128;DHT22;8679;50.842;4.322;2022-12-18T07:10:23;-3.60;99.90
17128;DHT22;8679;50.842;4.322;2022-12-18T07:12:49;-3.50;99.90
17128;DHT22;8679;50.842;4.322;2022-12-18T07:15:15;-3.40;99.90
17128;DHT22;8679;50.842;4.322;2022-12-18T07:17:40;-3.30;99.90
17128;DHT22;8679;50.842;4.322;2022-12-18T07:20:06;-3.30;99.90
17128;DHT22;8679;50.842;4.322;2022-12-18T07:22:32;-3.30;99.90
17128;DHT22;8679;50.842;4.322;2022-12-18T07:24:58;-3.30;99.90
17128;DHT22;8679;50.842;4.322;2022-12-18T07:27:24;-3.30;99.90
17128;DHT22;8679;50.842;4.322;2022-12-18T07:29:49;-3.30;99.90
17128;DHT22;8679;50.842;4.322;2022-12-18T07:32:15;-3.40;99.90
17128;DHT22;8679;50.842;4.322;2022-12-18T07:34:41;-3.40;99.90
17128;DHT22;8679;50.842;4.322;2022-12-18T07:37:07;-3.40;99.90
17128;DHT22;8679;50.842;4.322;2022-12-18T07:39:32;-3.40;99.90
17128;DHT22;8679;50.842;4.322;2022-12-18T07:41:58;-3.40;99.90
17128;DHT22;8679;50.842;4.322;2022-12-18T07:44:42;-3.40;99.90
17128;DHT22;8679;50.842;4.322;2022-12-18T07:47:08;-3.30;99.90
17128;DHT22;8679;50.842;4.322;2022-12-18T07:49:33;-3.20;99.90
17128;DHT22;8679;50.842;4.322;2022-12-18T07:51:59;-3.10;99.90
17128;DHT22;8679;50.842;4.322;2022-12-18T07:54:25;-3.00;99.90
17128;DHT22;8679;50.842;4.322;2022-12-18T07:56:51;-3.00;99.90
17128;DHT22;8679;50.842;4.322;2022-12-18T07:59:17;-2.90;99.90
17128;DHT22;8679;50.842;4.322;2022-12-18T08:01:43;-2.80;99.90
17128;DHT22;8679;50.842;4.322;2022-12-18T08:04:08;-2.90;99.90
17128;DHT22;8679;50.842;4.322;2022-12-18T08:06:34;-2.80;99.90
17128;DHT22;8679;50.842;4.322;2022-12-18T08:09:00;-2.80;99.90
17128;DHT22;8679;50.842;4.322;2022-12-18T08:11:27;-2.80;99.90
17128;DHT22;8679;50.842;4.322;2022-12-18T08:13:53;-2.80;99.90
17128;DHT22;8679;50.842;4.322;2022-12-18T08:16:20;-2.80;99.90
17128;DHT22;8679;50.842;4.322;2022-12-18T08:18:46;-2.70;82.70
17128;DHT22;8679;50.842;4.322;2022-12-18T08:21:17;-2.70;11.10
17128;DHT22;8679;50.842;4.322;2022-12-18T08:23:44;-2.70;4.30
17128;DHT22;8679;50.842;4.322;2022-12-18T08:26:13;-2.50;1.00
17128;DHT22;8679;50.842;4.322;2022-12-18T08:28:40;-2.40;1.00
17128;DHT22;8679;50.842;4.322;2022-12-18T08:31:06;-2.30;1.00
17128;DHT22;8679;50.842;4.322;2022-12-18T08:33:33;-2.30;1.00
17128;DHT22;8679;50.842;4.322;2022-12-18T08:35:59;-2.10;1.00
17128;DHT22;8679;50.842;4.322;2022-12-18T08:38:25;-1.90;1.00
17128;DHT22;8679;50.842;4.322;2022-12-18T08:40:58;-1.90;1.00
17128;DHT22;8679;50.842;4.322;2022-12-18T08:43:25;-1.80;1.00
17128;DHT22;8679;50.842;4.322;2022-12-18T08:46:11;-1.70;1.00
17128;DHT22;8679;50.842;4.322;2022-12-18T08:48:37;-1.60;1.00
17128;DHT22;8679;50.842;4.322;2022-12-18T08:51:03;-1.50;1.00
17128;DHT22;8679;50.842;4.322;2022-12-18T08:53:28;-1.40;1.00
17128;DHT22;8679;50.842;4.322;2022-12-18T08:55:56;-1.40;1.00
17128;DHT22;8679;50.842;4.322;2022-12-18T08:58:22;-1.30;1.00
17128;DHT22;8679;50.842;4.322;2022-12-18T09:00:48;-1.30;1.00
17128;DHT22;8679;50.842;4.322;2022-12-18T09:03:15;-1.20;1.00
17128;DHT22;8679;50.842;4.322;2022-12-18T09:05:41;-1.10;1.00
17128;DHT22;8679;50.842;4.322;2022-12-18T09:08:07;-1.00;1.00
17128;DHT22;8679;50.842;4.322;2022-12-18T09:10:33;-0.80;1.00
17128;DHT22;8679;50.842;4.322;2022-12-18T09:12:58;-0.70;1.00
17128;DHT22;8679;50.842;4.322;2022-12-18T09:15:24;-0.70;1.00
17128;DHT22;8679;50.842;4.322;2022-12-18T09:17:50;-0.60;1.00
17128;DHT22;8679;50.842;4.322;2022-12-18T09:20:19;-0.50;1.00
17128;DHT22;8679;50.842;4.322;2022-12-18T09:22:44;-0.40;1.00
17128;DHT22;8679;50.842;4.322;2022-12-18T09:25:10;-0.30;1.00
17128;DHT22;8679;50.842;4.322;2022-12-18T09:27:36;-0.30;1.00
17128;DHT22;8679;50.842;4.322;2022-12-18T09:30:02;-0.30;1.00
17128;DHT22;8679;50.842;4.322;2022-12-18T09:32:28;-0.30;1.00
17128;DHT22;8679;50.842;4.322;2022-12-18T09:34:54;-0.20;1.00
17128;DHT22;8679;50.842;4.322;2022-12-18T09:37:20;-0.20;1.00
17128;DHT22;8679;50.842;4.322;2022-12-18T09:39:46;-0.10;1.00
17128;DHT22;8679;50.842;4.322;2022-12-18T09:42:22;-0.10;1.00
17128;DHT22;8679;50.842;4.322;2022-12-18T09:44:53;-0.10;1.00
17128;DHT22;8679;50.842;4.322;2022-12-18T09:47:27;0.00;1.00
17128;DHT22;8679;50.842;4.322;2022-12-18T09:49:58;0.00;1.00
17128;DHT22;8679;50.842;4.322;2022-12-18T09:52:33;0.00;1.00
17128;DHT22;8679;50.842;4.322;2022-12-18T09:55:09;0.10;1.00
17128;DHT22;8679;50.842;4.322;2022-12-18T09:57:39;0.10;1.00
17128;DHT22;8679;50.842;4.322;2022-12-18T10:00:15;0.20;1.00
17128;DHT22;8679;50.842;4.322;2022-12-18T10:02:41;0.20;1.00
17128;DHT22;8679;50.842;4.322;2022-12-18T10:05:12;0.30;1.00
17128;DHT22;8679;50.842;4.322;2022-12-18T10:08:00;0.30;1.00
17128;DHT22;8679;50.842;4.322;2022-12-18T10:21:14;0.50;1.00
17128;DHT22;8679;50.842;4.322;2022-12-18T10:26:18;0.60;1.00
17128;DHT22;8679;50.842;4.322;2022-12-18T10:28:45;0.70;1.00
17128;DHT22;8679;50.842;4.322;2022-12-18T10:31:22;0.70;1.00
17128;DHT22;8679;50.842;4.322;2022-12-18T10:33:48;0.70;1.00
17128;DHT22;8679;50.842;4.322;2022-12-18T10:36:14;0.70;1.00
17128;DHT22;8679;50.842;4.322;2022-12-18T10:38:40;0.70;1.00
17128;DHT22;8679;50.842;4.322;2022-12-18T10:43:44;0.80;99.90
17128;DHT22;8679;50.842;4.322;2022-12-18T10:51:06;0.90;99.90
17128;DHT22;8679;50.842;4.322;2022-12-18T10:53:35;0.90;99.90
17128;DHT22;8679;50.842;4.322;2022-12-18T10:56:04;1.00;99.90
17128;DHT22;8679;50.842;4.322;2022-12-18T10:58:33;1.00;99.90
17128;DHT22;8679;50.842;4.322;2022-12-18T11:01:14;1.00;99.90
17128;DHT22;8679;50.842;4.322;2022-12-18T11:03:46;0.90;99.90
17128;DHT22;8679;50.842;4.322;2022-12-18T11:06:14;0.90;99.90
17128;DHT22;8679;50.842;4.322;2022-12-18T11:08:41;1.00;99.90
17128;DHT22;8679;50.842;4.322;2022-12-18T11:11:28;1.00;99.90
17128;DHT22;8679;50.842;4.322;2022-12-18T11:14:04;1.00;99.90
17128;DHT22;8679;50.842;4.322;2022-12-18T11:16:37;1.10;99.90
17128;DHT22;8679;50.842;4.322;2022-12-18T11:19:39;1.10;99.90
17128;DHT22;8679;50.842;4.322;2022-12-18T11:22:28;1.10;99.90
17128;DHT22;8679;50.842;4.322;2022-12-18T11:25:18;1.10;99.90
17128;DHT22;8679;50.842;4.322;2022-12-18T11:27:58;1.20;99.90
17128;DHT22;8679;50.842;4.322;2022-12-18T11:30:27;1.20;99.90
17128;DHT22;8679;50.842;4.322;2022-12-18T11:33:05;1.30;99.90
17128;DHT22;8679;50.842;4.322;2022-12-18T11:35:39;1.30;99.90
17128;DHT22;8679;50.842;4.322;2022-12-18T11:38:22;1.30;99.90
17128;DHT22;8679;50.842;4.322;2022-12-18T11:40:58;1.30;99.90
17128;DHT22;8679;50.842;4.322;2022-12-18T11:46:04;1.40;99.90
17128;DHT22;8679;50.842;4.322;2022-12-18T11:48:34;1.40;99.90
17128;DHT22;8679;50.842;4.322;2022-12-18T11:51:05;1.40;99.90
17128;DHT22;8679;50.842;4.322;2022-12-18T11:53:36;1.50;99.90
17128;DHT22;8679;50.842;4.322;2022-12-18T11:59:18;1.60;99.90
17128;DHT22;8679;50.842;4.322;2022-12-18T12:07:27;1.80;99.90
17128;DHT22;8679;50.842;4.322;2022-12-18T12:18:06;1.90;99.90
17128;DHT22;8679;50.842;4.322;2022-12-18T12:23:50;1.80;99.90
17128;DHT22;8679;50.842;4.322;2022-12-18T12:34:47;2.00;95.10
17128;DHT22;8679;50.842;4.322;2022-12-18T12:37:36;2.00;60.30
17128;DHT22;8679;50.842;4.322;2022-12-18T12:40:04;2.10;99.90
17128;DHT22;8679;50.842;4.322;2022-12-18T12:42:40;2.10;99.90
17128;DHT22;8679;50.842;4.322;2022-12-18T12:45:36;2.20;78.00
17128;DHT22;8679;50.842;4.322;2022-12-18T12:48:05;2.20;8.50
17128;DHT22;8679;50.842;4.322;2022-12-18T12:50:34;2.10;8.20
17128;DHT22;8679;50.842;4.322;2022-12-18T12:53:01;2.10;34.10
17128;DHT22;8679;50.842;4.322;2022-12-18T12:55:31;2.10;1.00
17128;DHT22;8679;50.842;4.322;2022-12-18T12:58:18;2.20;1.00
17128;DHT22;8679;50.842;4.322;2022-12-18T13:06:04;2.20;1.00
17128;DHT22;8679;50.842;4.322;2022-12-18T13:08:52;2.20;1.00
17128;DHT22;8679;50.842;4.322;2022-12-18T13:14:23;2.20;1.00
17128;DHT22;8679;50.842;4.322;2022-12-18T13:16:49;2.20;15.40
17128;DHT22;8679;50.842;4.322;2022-12-18T13:19:22;2.30;37.10
17128;DHT22;8679;50.842;4.322;2022-12-18T13:21:54;2.30;39.90
17128;DHT22;8679;50.842;4.322;2022-12-18T13:24:27;2.40;70.50
17128;DHT22;8679;50.842;4.322;2022-12-18T13:26:53;2.30;55.40
17128;DHT22;8679;50.842;4.322;2022-12-18T13:29:44;2.30;1.00
17128;DHT22;8679;50.842;4.322;2022-12-18T13:32:28;2.20;25.40
17128;DHT22;8679;50.842;4.322;2022-12-18T13:37:51;2.20;1.00
17128;DHT22;8679;50.842;4.322;2022-12-18T13:43:39;2.00;35.40
17128;DHT22;8679;50.842;4.322;2022-12-18T13:49:20;2.00;99.90
17128;DHT22;8679;50.842;4.322;2022-12-18T13:51:48;1.90;99.90
17128;DHT22;8679;50.842;4.322;2022-12-18T13:54:34;1.90;99.90
17128;DHT22;8679;50.842;4.322;2022-12-18T13:57:02;2.00;99.90
17128;DHT22;8679;50.842;4.322;2022-12-18T13:59:38;1.90;99.90
17128;DHT22;8679;50.842;4.322;2022-12-18T14:02:17;1.90;99.90
17128;DHT22;8679;50.842;4.322;2022-12-18T14:04:45;1.90;99.90
17128;DHT22;8679;50.842;4.322;2022-12-18T14:07:20;1.90;99.90
17128;DHT22;8679;50.842;4.322;2022-12-18T14:09:57;1.90;99.90
17128;DHT22;8679;50.842;4.322;2022-12-18T14:12:29;1.90;99.90
17128;DHT22;8679;50.842;4.322;2022-12-18T14:17:58;1.80;99.90
17128;DHT22;8679;50.842;4.322;2022-12-18T14:20:26;1.80;99.90
17128;DHT22;8679;50.842;4.322;2022-12-18T14:22:52;1.80;99.90
17128;DHT22;8679;50.842;4.322;2022-12-18T14:25:23;1.80;99.90
17128;DHT22;8679;50.842;4.322;2022-12-18T14:30:35;1.80;99.90
17128;DHT22;8679;50.842;4.322;2022-12-18T14:33:05;1.80;99.90
17128;DHT22;8679;50.842;4.322;2022-12-18T14:35:33;1.80;99.90
17128;DHT22;8679;50.842;4.322;2022-12-18T14:38:27;1.70;99.90
17128;DHT22;8679;50.842;4.322;2022-12-18T14:41:11;1.80;99.90
17128;DHT22;8679;50.842;4.322;2022-12-18T14:43:40;1.80;99.90
17128;DHT22;8679;50.842;4.322;2022-12-18T14:46:35;1.90;99.90
17128;DHT22;8679;50.842;4.322;2022-12-18T14:51:54;1.80;99.90
17128;DHT22;8679;50.842;4.322;2022-12-18T14:54:21;1.80;99.90
17128;DHT22;8679;50.842;4.322;2022-12-18T14:57:04;1.80;99.90
17128;DHT22;8679;50.842;4.322;2022-12-18T14:59:31;1.80;99.90
17128;DHT22;8679;50.842;4.322;2022-12-18T15:04:36;1.80;99.90
17128;DHT22;8679;50.842;4.322;2022-12-18T15:07:21;1.80;99.90
17128;DHT22;8679;50.842;4.322;2022-12-18T15:10:13;1.80;99.90
17128;DHT22;8679;50.842;4.322;2022-12-18T15:12:45;1.70;99.90
17128;DHT22;8679;50.842;4.322;2022-12-18T15:20:45;1.70;99.90
17128;DHT22;8679;50.842;4.322;2022-12-18T15:23:24;1.70;99.90
17128;DHT22;8679;50.842;4.322;2022-12-18T15:26:01;1.70;99.90
17128;DHT22;8679;50.842;4.322;2022-12-18T15:28:37;1.70;99.90
17128;DHT22;8679;50.842;4.322;2022-12-18T15:31:05;1.70;99.90
17128;DHT22;8679;50.842;4.322;2022-12-18T15:33:36;1.70;99.90
17128;DHT22;8679;50.842;4.322;2022-12-18T15:36:05;1.70;99.90
17128;DHT22;8679;50.842;4.322;2022-12-18T15:38:33;1.70;99.90
17128;DHT22;8679;50.842;4.322;2022-12-18T15:40:59;1.80;99.90
17128;DHT22;8679;50.842;4.322;2022-12-18T15:43:25;1.80;99.90
17128;DHT22;8679;50.842;4.322;2022-12-18T15:46:15;1.80;99.90
17128;DHT22;8679;50.842;4.322;2022-12-18T15:48:46;1.80;99.90
17128;DHT22;8679;50.842;4.322;2022-12-18T15:53:48;1.80;99.90
17128;DHT22;8679;50.842;4.322;2022-12-18T15:56:16;1.90;99.90
17128;DHT22;8679;50.842;4.322;2022-12-18T15:59:01;1.80;99.90
17128;DHT22;8679;50.842;4.322;2022-12-18T16:01:30;1.80;99.90
17128;DHT22;8679;50.842;4.322;2022-12-18T16:03:56;1.80;99.90
17128;DHT22;8679;50.842;4.322;2022-12-18T16:06:23;1.80;99.90
17128;DHT22;8679;50.842;4.322;2022-12-18T16:08:49;1.80;99.90
17128;DHT22;8679;50.842;4.322;2022-12-18T16:11:27;1.80;99.90
17128;DHT22;8679;50.842;4.322;2022-12-18T16:16:46;1.80;99.90
17128;DHT22;8679;50.842;4.322;2022-12-18T16:19:11;1.90;99.90
17128;DHT22;8679;50.842;4.322;2022-12-18T16:21:37;1.90;99.90
17128;DHT22;8679;50.842;4.322;2022-12-18T16:24:03;1.90;99.90
17128;DHT22;8679;50.842;4.322;2022-12-18T16:26:29;1.90;99.90
17128;DHT22;8679;50.842;4.322;2022-12-18T16:28:55;1.90;99.90
17128;DHT22;8679;50.842;4.322;2022-12-18T16:31:20;1.90;99.90
17128;DHT22;8679;50.842;4.322;2022-12-18T16:33:46;1.90;99.90
17128;DHT22;8679;50.842;4.322;2022-12-18T16:36:12;1.90;99.90
17128;DHT22;8679;50.842;4.322;2022-12-18T16:38:37;1.90;99.90
17128;DHT22;8679;50.842;4.322;2022-12-18T16:41:18;1.90;99.90
17128;DHT22;8679;50.842;4.322;2022-12-18T16:43:56;2.00;99.90
17128;DHT22;8679;50.842;4.322;2022-12-18T16:46:22;2.00;99.90
17128;DHT22;8679;50.842;4.322;2022-12-18T16:48:48;2.00;99.90
17128;DHT22;8679;50.842;4.322;2022-12-18T16:51:13;2.00;99.90
17128;DHT22;8679;50.842;4.322;2022-12-18T16:53:42;2.00;99.90
17128;DHT22;8679;50.842;4.322;2022-12-18T16:56:08;2.00;97.20
17128;DHT22;8679;50.842;4.322;2022-12-18T16:58:33;2.00;99.90
17128;DHT22;8679;50.842;4.322;2022-12-18T17:00:59;2.00;99.90
17128;DHT22;8679;50.842;4.322;2022-12-18T17:03:25;2.00;99.90
17128;DHT22;8679;50.842;4.322;2022-12-18T17:05:51;2.10;99.90
17128;DHT22;8679;50.842;4.322;2022-12-18T17:08:16;2.10;99.90
17128;DHT22;8679;50.842;4.322;2022-12-18T17:10:42;2.20;99.90
17128;DHT22;8679;50.842;4.322;2022-12-18T17:13:08;2.10;99.90
17128;DHT22;8679;50.842;4.322;2022-12-18T17:15:34;2.20;99.90
17128;DHT22;8679;50.842;4.322;2022-12-18T17:18:01;2.20;99.90
17128;DHT22;8679;50.842;4.322;2022-12-18T17:20:27;2.20;99.90
17128;DHT22;8679;50.842;4.322;2022-12-18T17:22:52;2.20;99.90
17128;DHT22;8679;50.842;4.322;2022-12-18T17:25:18;2.20;99.90
17128;DHT22;8679;50.842;4.322;2022-12-18T17:27:44;2.20;99.90
17128;DHT22;8679;50.842;4.322;2022-12-18T17:30:10;2.20;99.90
17128;DHT22;8679;50.842;4.322;2022-12-18T17:32:35;2.30;99.90
17128;DHT22;8679;50.842;4.322;2022-12-18T17:35:01;2.20;99.90
17128;DHT22;8679;50.842;4.322;2022-12-18T17:37:27;2.20;99.90
17128;DHT22;8679;50.842;4.322;2022-12-18T17:39:55;2.20;99.90
17128;DHT22;8679;50.842;4.322;2022-12-18T17:42:21;2.30;99.90
17128;DHT22;8679;50.842;4.322;2022-12-18T17:44:47;2.30;99.90
17128;DHT22;8679;50.842;4.322;2022-12-18T17:47:13;2.20;99.90
17128;DHT22;8679;50.842;4.322;2022-12-18T17:49:38;2.10;1.00
17128;DHT22;8679;50.842;4.322;2022-12-18T17:52:04;2.10;1.00
17128;DHT22;8679;50.842;4.322;2022-12-18T17:54:30;2.10;1.00
17128;DHT22;8679;50.842;4.322;2022-12-18T17:56:56;2.10;1.00
17128;DHT22;8679;50.842;4.322;2022-12-18T17:59:22;2.00;1.00
17128;DHT22;8679;50.842;4.322;2022-12-18T18:01:48;2.00;1.00
17128;DHT22;8679;50.842;4.322;2022-12-18T18:04:14;2.00;1.00
17128;DHT22;8679;50.842;4.322;2022-12-18T18:06:40;2.00;1.00